createdAt,value
2024-03-25T00:00:26.363Z,7.20
2024-03-25T00:03:17.916Z,7.60
2024-03-25T00:05:49.463Z,7.60
2024-03-25T00:08:21.017Z,7.60
2024-03-25T00:10:52.582Z,7.70
2024-03-25T00:13:24.235Z,8.00
2024-03-25T00:15:55.888Z,7.30
2024-03-25T00:18:27.656Z,7.70
2024-03-25T00:23:29.134Z,6.50
2024-03-25T00:26:00.675Z,6.20
2024-03-25T00:28:32.234Z,6.40
2024-03-25T00:31:03.852Z,6.30
2024-03-25T00:33:35.546Z,6.40
2024-03-25T00:36:08.723Z,6.90
2024-03-25T00:38:40.294Z,7.10
2024-03-25T00:41:11.848Z,7.20
2024-03-25T00:43:44.639Z,6.70
2024-03-25T00:46:16.189Z,7.70
2024-03-25T00:48:47.744Z,6.20
2024-03-25T00:51:19.302Z,5.90
2024-03-25T00:53:50.862Z,6.10
2024-03-25T00:56:22.412Z,6.90
2024-03-25T00:58:54.389Z,7.60
2024-03-25T01:01:25.930Z,7.40
2024-03-25T01:03:57.501Z,7.10
2024-03-25T01:06:29.046Z,6.10
2024-03-25T01:09:00.604Z,6.80
2024-03-25T01:11:32.299Z,6.60
2024-03-25T01:14:03.918Z,6.30
2024-03-25T01:16:36.493Z,6.50
2024-03-25T01:19:08.050Z,6.00
2024-03-25T01:21:40.019Z,5.60
2024-03-25T01:24:11.564Z,5.30
2024-03-25T01:26:43.243Z,5.60
2024-03-25T01:29:14.676Z,5.80
2024-03-25T01:31:46.231Z,6.60
2024-03-25T01:34:17.788Z,5.70
2024-03-25T01:36:49.353Z,6.50
2024-03-25T01:39:20.899Z,5.30
2024-03-25T01:44:22.574Z,5.20
2024-03-25T01:46:55.921Z,5.70
2024-03-25T01:49:27.940Z,6.30
2024-03-25T01:52:00.934Z,5.80
2024-03-25T01:54:34.362Z,5.10
2024-03-25T01:57:07.317Z,5.30
2024-03-25T01:59:39.896Z,5.40
2024-03-25T02:02:14.728Z,5.00
2024-03-25T02:04:47.308Z,5.20
2024-03-25T02:07:20.848Z,5.30
2024-03-25T02:09:54.516Z,5.30
2024-03-25T02:12:26.872Z,4.70
2024-03-25T02:15:00.152Z,5.00
2024-03-25T02:17:32.249Z,5.40
2024-03-25T02:20:04.112Z,4.90
2024-03-25T02:22:37.615Z,5.30
2024-03-25T02:25:11.624Z,5.50
2024-03-25T02:27:43.182Z,4.70
2024-03-25T02:30:16.635Z,5.10
2024-03-25T02:32:48.141Z,5.60
2024-03-25T02:35:19.890Z,5.70
2024-03-25T02:37:53.092Z,5.80
2024-03-25T02:40:25.261Z,5.00
2024-03-25T02:42:56.812Z,5.40
2024-03-25T02:45:28.571Z,5.40
2024-03-25T02:50:30.254Z,5.60
2024-03-25T02:53:01.840Z,4.90
2024-03-25T02:55:33.363Z,4.80
2024-03-25T02:58:05.136Z,5.40
2024-03-25T03:03:07.334Z,5.30
2024-03-25T03:05:38.980Z,5.60
2024-03-25T03:08:10.930Z,5.80
2024-03-25T03:10:42.495Z,5.80
2024-03-25T03:13:14.049Z,5.90
2024-03-25T03:15:48.666Z,6.70
2024-03-25T03:18:20.229Z,6.40
2024-03-25T03:20:51.783Z,6.50
2024-03-25T03:23:23.692Z,6.30
2024-03-25T03:25:55.306Z,6.10
2024-03-25T03:28:26.865Z,6.00
2024-03-25T03:30:58.407Z,6.40
2024-03-25T03:33:29.963Z,7.00
2024-03-25T03:36:01.516Z,6.40
2024-03-25T03:38:33.180Z,6.60
2024-03-25T03:41:06.204Z,5.90
2024-03-25T03:43:37.820Z,5.80
2024-03-25T03:46:09.376Z,5.60
2024-03-25T03:48:41.134Z,5.70
2024-03-25T03:51:12.526Z,5.90
2024-03-25T03:53:44.041Z,6.50
2024-03-25T03:56:15.619Z,5.80
2024-03-25T03:58:47.147Z,5.60
2024-03-25T04:01:20.599Z,5.30
2024-03-25T04:03:53.758Z,6.60
2024-03-25T04:06:26.338Z,6.10
2024-03-25T04:08:57.882Z,5.90
2024-03-25T04:11:29.436Z,5.30
2024-03-25T04:14:00.999Z,5.70
2024-03-25T04:16:33.212Z,5.80
2024-03-25T04:19:04.716Z,5.90
2024-03-25T04:21:36.271Z,5.90
2024-03-25T04:24:09.815Z,5.50
2024-03-25T04:26:41.239Z,5.40
2024-03-25T04:29:12.779Z,5.20
2024-03-25T04:31:44.542Z,5.90
2024-03-25T04:36:46.216Z,4.90
2024-03-25T04:39:17.770Z,5.40
2024-03-25T04:41:49.943Z,6.40
2024-03-25T04:44:22.935Z,7.20
2024-03-25T04:46:54.486Z,6.10
2024-03-25T04:49:26.041Z,5.70
2024-03-25T04:51:57.597Z,5.70
2024-03-25T04:54:29.354Z,5.50
2024-03-25T04:57:00.927Z,5.60
2024-03-25T04:59:32.474Z,5.90
2024-03-25T05:02:04.605Z,5.40
2024-03-25T05:04:36.396Z,5.60
2024-03-25T05:09:38.071Z,5.40
2024-03-25T05:12:10.381Z,5.60
2024-03-25T05:14:41.793Z,5.50
2024-03-25T05:17:13.350Z,5.90
2024-03-25T05:19:44.906Z,5.70
2024-03-25T05:22:16.464Z,5.50
2024-03-25T05:24:47.745Z,5.20
2024-03-25T05:27:19.169Z,5.30
2024-03-25T05:29:51.125Z,5.90
2024-03-25T05:32:23.137Z,6.30
2024-03-25T05:34:55.071Z,5.00
2024-03-25T05:37:26.818Z,5.60
2024-03-25T05:42:28.297Z,5.40
2024-03-25T05:45:01.274Z,5.80
2024-03-25T05:47:32.829Z,5.70
2024-03-25T05:50:06.481Z,5.20
2024-03-25T05:52:37.992Z,6.10
2024-03-25T05:55:11.099Z,5.80
2024-03-25T05:57:42.533Z,6.40
2024-03-25T06:00:16.564Z,6.20
2024-03-25T06:02:48.521Z,5.80
2024-03-25T06:05:20.068Z,7.10
2024-03-25T06:07:51.621Z,6.20
2024-03-25T06:12:54.537Z,5.90
2024-03-25T06:15:26.508Z,5.60
2024-03-25T06:17:58.256Z,6.30
2024-03-25T06:20:29.809Z,5.50
2024-03-25T06:23:02.611Z,6.10
2024-03-25T06:25:34.764Z,5.50
2024-03-25T06:28:08.067Z,5.80
2024-03-25T06:30:57.535Z,5.40
2024-03-25T06:33:46.912Z,6.10
2024-03-25T06:36:19.822Z,7.50
2024-03-25T06:38:51.654Z,6.00
2024-03-25T06:41:23.221Z,5.50
2024-03-25T06:43:54.772Z,5.60
2024-03-25T06:46:26.316Z,5.90
2024-03-25T06:48:57.876Z,6.10
2024-03-25T06:51:30.044Z,6.20
2024-03-25T06:54:03.239Z,5.10
2024-03-25T06:56:34.802Z,5.40
2024-03-25T06:59:06.384Z,6.10
2024-03-25T07:01:37.902Z,6.40
2024-03-25T07:04:09.667Z,6.20
2024-03-25T07:06:42.447Z,6.00
2024-03-25T07:09:15.630Z,6.30
2024-03-25T07:11:48.578Z,6.80
2024-03-25T07:14:20.607Z,6.80
2024-03-25T07:16:52.152Z,5.70
2024-03-25T07:19:23.644Z,6.40
2024-03-25T07:21:55.260Z,6.30
2024-03-25T07:24:26.817Z,6.20
2024-03-25T07:26:58.367Z,6.40
2024-03-25T07:29:30.539Z,6.30
2024-03-25T07:32:01.889Z,6.20
2024-03-25T07:34:33.616Z,6.10
2024-03-25T07:37:05.923Z,6.00
2024-03-25T07:39:37.373Z,5.90
2024-03-25T07:42:09.440Z,6.10
2024-03-25T07:44:40.892Z,5.30
2024-03-25T07:47:12.538Z,5.50
2024-03-25T07:49:44.014Z,5.90
2024-03-25T07:52:16.120Z,5.10
2024-03-25T07:54:48.553Z,5.10
2024-03-25T07:57:20.821Z,4.50
2024-03-25T07:59:52.694Z,4.80
2024-03-25T08:02:24.241Z,4.80
2024-03-25T08:04:56.410Z,5.30
2024-03-25T08:07:27.969Z,4.80
2024-03-25T08:09:59.718Z,5.10
2024-03-25T08:12:31.479Z,4.50
2024-03-25T08:15:03.059Z,4.30
2024-03-25T08:17:34.941Z,4.40
2024-03-25T08:20:09.524Z,4.10
2024-03-25T08:22:40.981Z,3.90
2024-03-25T08:25:13.214Z,4.10
2024-03-25T08:27:44.700Z,3.90
2024-03-25T08:30:16.970Z,3.30
2024-03-25T08:32:48.428Z,2.80
2024-03-25T08:35:19.980Z,3.10
2024-03-25T08:40:21.863Z,4.10
2024-03-25T08:42:53.713Z,3.70
2024-03-25T08:45:25.434Z,4.10
2024-03-25T08:50:27.058Z,4.10
2024-03-25T08:55:29.965Z,5.10
2024-03-25T08:58:01.521Z,5.00
2024-03-25T09:00:33.282Z,5.20
2024-03-25T09:05:37.307Z,5.40
2024-03-25T09:08:12.897Z,5.30
2024-03-25T09:11:08.801Z,5.70
2024-03-25T09:13:40.549Z,5.80
2024-03-25T09:16:12.510Z,5.90
2024-03-25T09:18:44.073Z,5.50
2024-03-25T09:21:15.827Z,4.60
2024-03-25T09:23:47.380Z,5.80
2024-03-25T09:26:19.002Z,5.30
2024-03-25T09:31:20.614Z,5.80
2024-03-25T09:33:52.169Z,5.50
2024-03-25T09:36:23.727Z,4.50
2024-03-25T09:38:56.969Z,4.40
2024-03-25T09:41:30.950Z,4.70
2024-03-25T09:44:05.357Z,5.10
2024-03-25T09:46:38.561Z,4.90
2024-03-25T09:49:11.130Z,4.30
2024-03-25T09:51:42.684Z,4.20
2024-03-25T09:54:14.443Z,3.90
2024-03-25T09:59:18.142Z,4.10
2024-03-25T10:01:49.759Z,4.70
2024-03-25T10:06:52.284Z,5.60
2024-03-25T10:09:24.487Z,4.00
2024-03-25T10:11:55.963Z,4.40
2024-03-25T10:19:29.188Z,3.10
2024-03-25T10:22:07.221Z,3.00
2024-03-25T10:24:43.755Z,3.90
2024-03-25T10:27:21.880Z,5.20
2024-03-25T10:29:56.889Z,4.90
2024-03-25T10:32:30.141Z,7.20
2024-03-25T10:35:02.317Z,6.70
2024-03-25T10:37:35.597Z,17.80
2024-03-25T10:40:13.977Z,6.20
2024-03-25T10:42:49.981Z,5.80
2024-03-25T10:45:22.415Z,3.50
2024-03-25T10:47:53.964Z,4.40
2024-03-25T10:50:31.304Z,3.80
2024-03-25T10:53:04.673Z,6.80
2024-03-25T10:55:39.912Z,5.90
2024-03-25T10:58:12.432Z,4.30
2024-03-25T11:00:45.581Z,4.70
2024-03-25T11:03:17.894Z,4.80
2024-03-25T11:05:49.616Z,5.40
2024-03-25T11:08:22.495Z,5.00
2024-03-25T11:10:54.152Z,4.10
2024-03-25T11:13:25.700Z,3.90
2024-03-25T11:16:00.098Z,4.70
2024-03-25T11:18:35.092Z,4.50
2024-03-25T11:21:11.027Z,4.80
2024-03-25T11:23:46.262Z,3.80
2024-03-25T11:26:27.441Z,4.10
2024-03-25T11:28:58.997Z,4.10
2024-03-25T11:31:34.177Z,3.90
2024-03-25T11:34:09.379Z,3.90
2024-03-25T11:36:41.650Z,4.30
2024-03-25T11:39:14.369Z,4.80
2024-03-25T11:41:47.217Z,4.30
2024-03-25T11:44:20.823Z,4.30
2024-03-25T11:46:54.843Z,4.40
2024-03-25T11:49:27.194Z,4.40
2024-03-25T11:52:01.422Z,3.70
2024-03-25T11:54:32.984Z,4.70
2024-03-25T11:57:05.089Z,6.30
2024-03-25T11:59:36.919Z,4.60
2024-03-25T12:02:10.802Z,4.70
2024-03-25T12:04:46.233Z,4.50
2024-03-25T12:07:18.542Z,4.70
2024-03-25T12:10:08.324Z,4.70
2024-03-25T12:12:40.494Z,5.10
2024-03-25T12:15:12.621Z,4.10
2024-03-25T12:17:44.091Z,5.10
2024-03-25T12:22:47.564Z,5.40
2024-03-25T12:25:23.387Z,5.80
2024-03-25T12:27:54.676Z,5.40
2024-03-25T12:30:26.323Z,5.60
2024-03-25T12:32:59.296Z,5.10
2024-03-25T12:35:37.394Z,3.90
2024-03-25T12:38:09.152Z,2.70
2024-03-25T12:40:40.715Z,2.70
2024-03-25T12:43:22.347Z,3.00
2024-03-25T12:45:59.769Z,3.10
2024-03-25T12:48:33.191Z,4.60
2024-03-25T12:51:05.988Z,4.20
2024-03-25T12:53:37.532Z,4.70
2024-03-25T12:56:10.127Z,5.10
2024-03-25T12:58:41.669Z,5.10
2024-03-25T13:01:13.639Z,5.10
2024-03-25T13:03:45.195Z,5.20
2024-03-25T13:06:16.743Z,5.30
2024-03-25T13:11:18.434Z,14.00
2024-03-25T13:13:49.975Z,6.80
2024-03-25T13:16:21.526Z,4.70
2024-03-25T13:18:53.079Z,5.30
2024-03-25T13:21:26.717Z,4.50
2024-03-25T13:23:58.241Z,4.30
2024-03-25T13:29:00.019Z,4.40
2024-03-25T13:31:32.909Z,3.70
2024-03-25T13:34:04.664Z,4.20
2024-03-25T13:36:36.607Z,4.90
2024-03-25T13:39:09.749Z,7.60
2024-03-25T13:41:41.787Z,7.60
2024-03-25T13:44:13.344Z,6.10
2024-03-25T13:49:16.457Z,4.90
2024-03-25T13:51:48.662Z,3.50
2024-03-25T13:54:20.180Z,3.60
2024-03-25T13:59:22.083Z,4.50
2024-03-25T14:01:55.258Z,4.00
2024-03-25T14:04:28.040Z,3.30
2024-03-25T14:06:59.597Z,3.80
2024-03-25T14:12:02.301Z,3.10
2024-03-25T14:14:33.855Z,4.10
2024-03-25T14:19:35.533Z,5.50
2024-03-25T14:22:07.084Z,5.20
2024-03-25T14:24:38.641Z,4.50
2024-03-25T14:27:10.399Z,4.30
2024-03-25T14:29:41.963Z,4.70
2024-03-25T14:32:13.514Z,5.80
2024-03-25T14:34:45.683Z,4.00
2024-03-25T14:37:18.269Z,4.80
2024-03-25T14:39:50.446Z,5.50
2024-03-25T14:42:21.994Z,4.50
2024-03-25T14:44:53.546Z,19.00
2024-03-25T14:47:25.144Z,14.30
2024-03-25T14:49:56.654Z,26.30
2024-03-25T14:52:28.212Z,8.30
2024-03-25T14:55:03.468Z,4.60
2024-03-25T14:57:35.219Z,4.40
2024-03-25T15:00:08.498Z,4.50
2024-03-25T15:02:40.158Z,11.30
2024-03-25T15:05:12.120Z,5.80
2024-03-25T15:07:43.714Z,5.60
2024-03-25T15:10:15.238Z,11.40
2024-03-25T15:12:48.427Z,6.10
2024-03-25T15:15:20.161Z,5.00
2024-03-25T15:17:51.908Z,5.40
2024-03-25T15:20:23.598Z,11.30
2024-03-25T15:22:56.694Z,7.10
2024-03-25T15:25:28.750Z,7.10
2024-03-25T15:28:00.212Z,5.60
2024-03-25T15:30:32.785Z,6.40
2024-03-25T15:33:04.575Z,5.20
2024-03-25T15:35:36.111Z,6.80
2024-03-25T15:38:08.272Z,5.30
2024-03-25T15:40:39.826Z,8.20
2024-03-25T15:43:11.382Z,9.30
2024-03-25T15:45:42.958Z,9.50
2024-03-25T15:48:14.555Z,4.90
2024-03-25T15:50:47.277Z,5.60
2024-03-25T15:53:19.037Z,5.20
2024-03-25T15:55:52.281Z,4.80
2024-03-25T15:58:23.791Z,4.40
2024-03-25T16:03:26.819Z,5.70
2024-03-25T16:05:58.449Z,4.40
2024-03-25T16:11:00.540Z,4.30
2024-03-25T16:13:33.542Z,4.20
2024-03-25T16:16:08.132Z,3.50
2024-03-25T16:18:40.116Z,3.90
2024-03-25T16:21:19.652Z,4.50
2024-03-25T16:23:51.276Z,5.30
2024-03-25T16:26:24.734Z,6.20
2024-03-25T16:28:56.192Z,4.70
2024-03-25T16:31:27.538Z,4.70
2024-03-25T16:33:59.720Z,3.80
2024-03-25T16:36:31.242Z,4.10
2024-03-25T16:39:04.723Z,4.10
2024-03-25T16:41:36.095Z,5.20
2024-03-25T16:44:07.587Z,5.10
2024-03-25T16:46:38.974Z,6.10
2024-03-25T16:49:10.358Z,8.00
2024-03-25T16:51:41.736Z,17.20
2024-03-25T16:54:13.170Z,15.00
2024-03-25T16:56:44.516Z,13.40
2024-03-25T16:59:15.874Z,13.30
2024-03-25T17:01:48.057Z,17.10
2024-03-25T17:04:19.797Z,30.90
2024-03-25T17:06:51.195Z,25.20
2024-03-25T17:09:22.585Z,36.10
2024-03-25T17:11:54.138Z,17.60
2024-03-25T17:14:26.027Z,24.90
2024-03-25T17:17:21.523Z,23.20
2024-03-25T17:19:49.492Z,18.70
2024-03-25T17:22:20.776Z,22.40
2024-03-25T17:24:53.812Z,27.10
2024-03-25T17:27:25.584Z,34.40
2024-03-25T17:29:57.392Z,35.90
2024-03-25T17:32:28.848Z,29.80
2024-03-25T17:35:00.262Z,19.90
2024-03-25T17:37:32.237Z,22.70
2024-03-25T17:40:05.217Z,55.70
2024-03-25T17:42:36.521Z,31.70
2024-03-25T17:45:08.897Z,22.30
2024-03-25T17:47:40.218Z,26.80
2024-03-25T17:50:12.823Z,21.40
2024-03-25T17:52:44.520Z,22.10
2024-03-25T17:57:45.751Z,21.60
2024-03-25T18:00:17.652Z,25.40
2024-03-25T18:02:49.888Z,26.20
2024-03-25T18:05:21.314Z,24.80
2024-03-25T18:07:53.431Z,24.00
2024-03-25T18:10:24.834Z,26.40
2024-03-25T18:12:56.222Z,27.30
2024-03-25T18:15:28.000Z,26.20
2024-03-25T18:17:59.516Z,23.40
2024-03-25T18:20:30.854Z,22.00
2024-03-25T18:23:02.198Z,21.10
2024-03-25T18:25:33.700Z,22.90
2024-03-25T18:28:05.680Z,24.00
2024-03-25T18:30:37.427Z,32.20
2024-03-25T18:35:41.050Z,25.30
2024-03-25T18:38:12.544Z,22.20
2024-03-25T18:40:44.457Z,20.70
2024-03-25T18:43:15.884Z,20.50
2024-03-25T18:45:47.235Z,19.80
2024-03-25T18:48:19.182Z,21.00
2024-03-25T18:50:50.579Z,21.90
2024-03-25T18:53:21.944Z,21.80
2024-03-25T18:55:53.316Z,24.90
2024-03-25T18:58:24.640Z,25.70
2024-03-25T19:00:55.966Z,25.30
2024-03-25T19:03:27.324Z,27.30
2024-03-25T19:05:58.713Z,23.10
2024-03-25T19:08:30.072Z,25.10
2024-03-25T19:11:01.470Z,25.40
2024-03-25T19:13:34.162Z,24.30
2024-03-25T19:16:06.520Z,22.90
2024-03-25T19:18:37.825Z,22.80
2024-03-25T19:21:09.183Z,17.60
2024-03-25T19:23:40.639Z,15.70
2024-03-25T19:26:12.112Z,15.40
2024-03-25T19:28:43.469Z,16.40
2024-03-25T19:31:14.835Z,17.50
2024-03-25T19:33:46.482Z,19.00
2024-03-25T19:36:17.860Z,19.50
2024-03-25T19:38:49.185Z,17.50
2024-03-25T19:41:21.378Z,17.30
2024-03-25T19:43:55.018Z,17.00
2024-03-25T19:46:26.374Z,16.50
2024-03-25T19:48:57.670Z,16.60
2024-03-25T19:51:29.086Z,16.90
2024-03-25T19:54:00.483Z,19.70
2024-03-25T19:56:31.848Z,21.30
2024-03-25T19:59:03.143Z,18.70
2024-03-25T20:01:35.034Z,20.10
2024-03-25T20:04:06.787Z,19.60
2024-03-25T20:09:08.009Z,19.10
2024-03-25T20:11:39.608Z,19.00
2024-03-25T20:14:10.924Z,17.30
2024-03-25T20:16:42.744Z,17.70
2024-03-25T20:19:14.887Z,17.00
2024-03-25T20:21:46.273Z,22.60
2024-03-25T20:24:17.622Z,21.00
2024-03-25T20:26:48.974Z,22.80
2024-03-25T20:29:20.509Z,20.50
2024-03-25T20:31:52.996Z,19.40
2024-03-25T20:34:24.355Z,19.60
2024-03-25T20:36:55.745Z,16.90
2024-03-25T20:39:27.096Z,17.00
2024-03-25T20:41:58.479Z,15.80
2024-03-25T20:44:29.841Z,15.50
2024-03-25T20:47:01.163Z,19.80
2024-03-25T20:49:32.489Z,22.20
2024-03-25T20:52:03.810Z,21.60
2024-03-25T20:54:35.303Z,25.20
2024-03-25T20:57:07.304Z,20.90
2024-03-25T20:59:38.767Z,21.30
2024-03-25T21:02:10.092Z,18.90
2024-03-25T21:04:41.797Z,17.80
2024-03-25T21:09:42.977Z,16.70
2024-03-25T21:12:15.708Z,17.20
2024-03-25T21:14:47.083Z,17.50
2024-03-25T21:17:19.051Z,16.00
2024-03-25T21:19:50.362Z,16.20
2024-03-25T21:22:23.136Z,16.00
2024-03-25T21:24:54.421Z,15.40
2024-03-25T21:27:25.768Z,16.90
2024-03-25T21:29:57.046Z,15.40
2024-03-25T21:34:59.030Z,14.10
2024-03-25T21:37:30.397Z,20.10
2024-03-25T21:40:01.865Z,16.60
2024-03-25T21:42:33.595Z,16.20
2024-03-25T21:47:35.025Z,15.60
2024-03-25T21:50:07.189Z,15.40
2024-03-25T21:52:38.559Z,17.20
2024-03-25T21:55:10.736Z,16.30
2024-03-25T21:57:42.135Z,17.60
2024-03-25T22:00:16.289Z,15.60
2024-03-25T22:02:47.681Z,14.70
2024-03-25T22:05:19.182Z,15.20
2024-03-25T22:07:50.632Z,15.90
2024-03-25T22:10:21.979Z,15.90
2024-03-25T22:12:53.311Z,17.10
2024-03-25T22:15:24.647Z,15.40
2024-03-25T22:17:56.348Z,16.60
2024-03-25T22:22:57.682Z,16.20
2024-03-25T22:25:29.017Z,17.30
2024-03-25T22:28:00.397Z,18.00
2024-03-25T22:30:31.807Z,21.40
2024-03-25T22:33:03.182Z,16.70
2024-03-25T22:35:34.491Z,15.10
2024-03-25T22:38:06.064Z,16.20
2024-03-25T22:40:40.021Z,14.90
2024-03-25T22:43:11.401Z,16.00
2024-03-25T22:45:42.790Z,15.90
2024-03-25T22:48:14.164Z,16.30
2024-03-25T22:50:56.266Z,14.00
2024-03-25T22:53:28.788Z,15.10
2024-03-25T22:56:06.115Z,14.50
2024-03-25T22:58:38.420Z,15.10
2024-03-25T23:01:11.617Z,16.20
2024-03-25T23:03:42.973Z,16.10
2024-03-25T23:06:14.247Z,13.90
2024-03-25T23:08:45.630Z,13.50
2024-03-25T23:11:17.061Z,14.30
2024-03-25T23:13:48.382Z,13.90
2024-03-25T23:16:19.730Z,15.30
2024-03-25T23:18:51.515Z,14.30
2024-03-25T23:23:52.801Z,15.60
2024-03-25T23:26:24.474Z,15.10
2024-03-25T23:28:57.184Z,14.80
2024-03-25T23:31:28.553Z,15.10
2024-03-25T23:33:59.895Z,13.10
2024-03-25T23:36:31.249Z,17.10
2024-03-25T23:39:04.408Z,17.50
2024-03-25T23:41:35.731Z,15.90
2024-03-25T23:44:07.430Z,16.30
2024-03-25T23:46:38.799Z,14.30
2024-03-25T23:49:10.123Z,12.90
2024-03-25T23:51:41.410Z,13.30
2024-03-25T23:54:14.861Z,12.80
2024-03-25T23:56:46.161Z,13.90
2024-03-25T23:59:17.555Z,14.20
